createdAt,value
2022-10-19T00:00:21.141Z,100
2022-10-19T00:01:21.141Z,100
2022-10-19T00:02:21.287Z,100
2022-10-19T00:03:25.278Z,100
2022-10-19T00:04:21.181Z,100
2022-10-19T00:05:21.139Z,100
2022-10-19T00:06:21.151Z,100
2022-10-19T00:07:21.130Z,100
2022-10-19T00:08:21.156Z,100
2022-10-19T00:09:21.137Z,100
2022-10-19T00:10:21.156Z,100
2022-10-19T00:11:21.147Z,100
2022-10-19T00:12:21.140Z,100
2022-10-19T00:13:21.150Z,100
2022-10-19T00:14:21.151Z,100
2022-10-19T00:15:21.149Z,100
2022-10-19T00:16:21.244Z,100
2022-10-19T00:17:21.144Z,100
2022-10-19T00:18:21.139Z,100
2022-10-19T00:19:21.166Z,100
2022-10-19T00:20:21.136Z,100
2022-10-19T00:21:21.136Z,100
2022-10-19T00:22:21.150Z,100
2022-10-19T00:23:21.151Z,100
2022-10-19T00:24:21.137Z,100
2022-10-19T00:25:21.149Z,100
2022-10-19T00:26:21.241Z,100
2022-10-19T00:27:21.142Z,100
2022-10-19T00:28:21.151Z,100
2022-10-19T00:29:21.191Z,100
2022-10-19T00:30:21.556Z,100
2022-10-19T00:31:21.152Z,100
2022-10-19T00:32:21.451Z,100
2022-10-19T00:33:21.385Z,100
2022-10-19T00:34:21.667Z,100
2022-10-19T00:35:21.293Z,100
2022-10-19T00:36:21.250Z,100
2022-10-19T00:37:21.686Z,100
2022-10-19T00:38:22.010Z,100
2022-10-19T00:39:21.474Z,100
2022-10-19T00:40:21.722Z,100
2022-10-19T00:41:21.130Z,100
2022-10-19T00:42:21.137Z,100
2022-10-19T00:43:21.144Z,100
2022-10-19T00:44:21.135Z,100
2022-10-19T00:45:21.153Z,100
2022-10-19T00:46:21.136Z,100
2022-10-19T00:47:21.151Z,100
2022-10-19T00:48:21.238Z,100
2022-10-19T00:49:21.157Z,100
2022-10-19T00:50:21.139Z,100
2022-10-19T00:51:21.132Z,100
2022-10-19T00:52:21.143Z,100
2022-10-19T00:53:21.153Z,100
2022-10-19T00:54:21.142Z,100
2022-10-19T00:55:21.130Z,100
2022-10-19T00:56:21.150Z,100
2022-10-19T00:57:21.146Z,100
2022-10-19T00:58:21.149Z,100
2022-10-19T00:59:21.161Z,100
2022-10-19T01:00:21.228Z,100
2022-10-19T01:01:21.357Z,100
2022-10-19T01:02:21.133Z,100
2022-10-19T01:03:21.140Z,100
2022-10-19T01:04:21.133Z,100
2022-10-19T01:05:21.132Z,100
2022-10-19T01:06:21.150Z,100
2022-10-19T01:07:21.147Z,100
2022-10-19T01:08:21.142Z,100
2022-10-19T01:09:21.146Z,100
2022-10-19T01:10:21.150Z,100
2022-10-19T01:11:21.145Z,100
2022-10-19T01:12:21.157Z,100
2022-10-19T01:13:21.200Z,100
2022-10-19T01:14:21.141Z,100
2022-10-19T01:15:21.146Z,100
2022-10-19T01:16:21.144Z,100
2022-10-19T01:17:21.132Z,100
2022-10-19T01:18:21.162Z,100
2022-10-19T01:19:21.149Z,100
2022-10-19T01:20:21.140Z,100
2022-10-19T01:21:21.156Z,100
2022-10-19T01:22:21.138Z,100
2022-10-19T01:23:21.210Z,100
2022-10-19T01:24:21.148Z,100
2022-10-19T01:25:21.152Z,100
2022-10-19T01:26:21.368Z,100
2022-10-19T01:27:21.650Z,100
2022-10-19T01:28:21.648Z,100
2022-10-19T01:29:20.895Z,100
2022-10-19T01:30:21.289Z,100
2022-10-19T01:31:21.598Z,100
2022-10-19T01:32:20.990Z,100
2022-10-19T01:33:21.358Z,100
2022-10-19T01:34:21.637Z,100
2022-10-19T01:35:21.164Z,100
2022-10-19T01:36:21.147Z,100
2022-10-19T01:37:21.137Z,100
2022-10-19T01:38:21.170Z,100
2022-10-19T01:39:21.140Z,100
2022-10-19T01:40:21.141Z,100
2022-10-19T01:41:21.133Z,100
2022-10-19T01:42:21.146Z,100
2022-10-19T01:43:21.176Z,100
2022-10-19T01:44:21.142Z,100
2022-10-19T01:45:21.173Z,100
2022-10-19T01:46:21.191Z,100
2022-10-19T01:47:21.157Z,100
2022-10-19T01:48:21.199Z,100
2022-10-19T01:49:21.121Z,100
2022-10-19T01:50:21.145Z,100
2022-10-19T01:51:21.143Z,100
2022-10-19T01:52:21.142Z,100
2022-10-19T01:53:21.199Z,100
2022-10-19T01:54:21.146Z,100
2022-10-19T01:55:21.137Z,100
2022-10-19T01:56:21.144Z,100
2022-10-19T01:57:21.156Z,100
2022-10-19T01:58:21.256Z,100
2022-10-19T01:59:21.137Z,100
2022-10-19T02:00:21.165Z,100
2022-10-19T02:01:21.151Z,100
2022-10-19T02:02:21.357Z,100
2022-10-19T02:03:21.180Z,100
2022-10-19T02:04:21.363Z,100
2022-10-19T02:05:21.262Z,100
2022-10-19T02:06:21.594Z,100
2022-10-19T02:07:21.353Z,100
2022-10-19T02:08:21.553Z,100
2022-10-19T02:09:21.784Z,100
2022-10-19T02:10:21.188Z,100
2022-10-19T02:11:21.134Z,100
2022-10-19T02:12:21.323Z,100
2022-10-19T02:13:21.418Z,100
2022-10-19T02:14:21.676Z,100
2022-10-19T02:15:21.195Z,100
2022-10-19T02:16:21.468Z,100
2022-10-19T02:17:21.228Z,100
2022-10-19T02:18:21.138Z,100
2022-10-19T02:19:21.395Z,100
2022-10-19T02:20:21.674Z,100
2022-10-19T02:21:21.461Z,100
2022-10-19T02:22:21.158Z,100
2022-10-19T02:23:21.440Z,100
2022-10-19T02:24:21.160Z,100
2022-10-19T02:25:21.302Z,100
2022-10-19T02:26:21.240Z,100
2022-10-19T02:27:21.132Z,100
2022-10-19T02:28:21.220Z,100
2022-10-19T02:29:21.152Z,100
2022-10-19T02:30:21.223Z,100
2022-10-19T02:31:21.367Z,100
2022-10-19T02:32:21.401Z,100
2022-10-19T02:33:21.125Z,100
2022-10-19T02:34:21.140Z,100
2022-10-19T02:35:21.271Z,100
2022-10-19T02:36:21.146Z,100
2022-10-19T02:37:27.260Z,100
2022-10-19T02:38:21.143Z,100
2022-10-19T02:39:21.143Z,100
2022-10-19T02:40:21.207Z,100
2022-10-19T02:41:21.147Z,100
2022-10-19T02:42:21.274Z,100
2022-10-19T02:43:21.160Z,100
2022-10-19T02:44:21.157Z,100
2022-10-19T02:45:21.155Z,100
2022-10-19T02:46:21.157Z,100
2022-10-19T02:47:21.132Z,100
2022-10-19T02:48:21.153Z,100
2022-10-19T02:49:21.146Z,100
2022-10-19T02:50:21.130Z,100
2022-10-19T02:51:21.147Z,100
2022-10-19T02:52:21.156Z,100
2022-10-19T02:53:21.167Z,100
2022-10-19T02:54:21.152Z,100
2022-10-19T02:55:21.160Z,100
2022-10-19T02:56:21.347Z,100
2022-10-19T02:57:21.226Z,100
2022-10-19T02:58:21.137Z,100
2022-10-19T02:59:21.134Z,100
2022-10-19T03:00:21.128Z,100
2022-10-19T03:01:21.209Z,100
2022-10-19T03:02:21.141Z,100
2022-10-19T03:03:21.146Z,100
2022-10-19T03:04:21.149Z,100
2022-10-19T03:05:21.263Z,100
2022-10-19T03:06:21.161Z,100
2022-10-19T03:07:21.392Z,100
2022-10-19T03:08:21.134Z,100
2022-10-19T03:09:21.151Z,100
2022-10-19T03:10:21.133Z,100
2022-10-19T03:11:21.130Z,100
2022-10-19T03:12:21.141Z,100
2022-10-19T03:13:21.144Z,100
2022-10-19T03:14:21.143Z,100
2022-10-19T03:15:21.153Z,100
2022-10-19T03:16:21.153Z,100
2022-10-19T03:17:21.146Z,100
2022-10-19T03:18:21.152Z,100
2022-10-19T03:19:21.131Z,100
2022-10-19T03:20:21.138Z,100
2022-10-19T03:21:21.132Z,100
2022-10-19T03:22:21.130Z,100
2022-10-19T03:23:21.142Z,100
2022-10-19T03:24:21.167Z,100
2022-10-19T03:25:21.128Z,100
2022-10-19T03:26:21.145Z,100
2022-10-19T03:27:21.164Z,100
2022-10-19T03:28:21.207Z,100
2022-10-19T03:29:21.188Z,100
2022-10-19T03:30:21.153Z,100
2022-10-19T03:31:21.400Z,100
2022-10-19T03:32:21.140Z,100
2022-10-19T03:33:21.177Z,100
2022-10-19T03:34:21.168Z,100
2022-10-19T03:35:21.131Z,100
2022-10-19T03:36:21.139Z,100
2022-10-19T03:37:21.141Z,100
2022-10-19T03:38:21.144Z,100
2022-10-19T03:39:21.186Z,100
2022-10-19T03:40:21.154Z,100
2022-10-19T03:41:21.153Z,100
2022-10-19T03:42:21.175Z,100
2022-10-19T03:43:21.121Z,100
2022-10-19T03:44:21.189Z,100
2022-10-19T03:45:21.509Z,100
2022-10-19T03:46:21.138Z,100
2022-10-19T03:47:21.417Z,100
2022-10-19T03:48:21.313Z,100
2022-10-19T03:49:21.622Z,100
2022-10-19T03:50:21.281Z,100
2022-10-19T03:51:21.251Z,100
2022-10-19T03:52:21.551Z,100
2022-10-19T03:53:21.789Z,100
2022-10-19T03:54:27.650Z,100
2022-10-19T03:55:22.014Z,100
2022-10-19T03:56:21.155Z,100
2022-10-19T03:57:21.138Z,100
2022-10-19T03:58:21.147Z,100
2022-10-19T03:59:21.141Z,100
2022-10-19T04:00:21.146Z,100
2022-10-19T04:01:21.187Z,100
2022-10-19T04:02:21.142Z,100
2022-10-19T04:03:21.175Z,100
2022-10-19T04:04:21.145Z,100
2022-10-19T04:05:21.139Z,100
2022-10-19T04:06:24.241Z,100
2022-10-19T04:07:21.145Z,100
2022-10-19T04:08:21.152Z,100
2022-10-19T04:09:21.136Z,100
2022-10-19T04:10:21.152Z,100
2022-10-19T04:11:21.132Z,100
2022-10-19T04:12:21.142Z,100
2022-10-19T04:13:21.160Z,100
2022-10-19T04:14:32.975Z,100
2022-10-19T04:15:21.154Z,100
2022-10-19T04:16:21.145Z,100
2022-10-19T04:17:21.156Z,100
2022-10-19T04:18:21.373Z,100
2022-10-19T04:19:21.140Z,100
2022-10-19T04:20:21.139Z,100
2022-10-19T04:21:21.365Z,100
2022-10-19T04:22:21.143Z,100
2022-10-19T04:23:21.432Z,100
2022-10-19T04:24:21.227Z,100
2022-10-19T04:25:21.529Z,100
2022-10-19T04:26:21.423Z,100
2022-10-19T04:27:21.417Z,100
2022-10-19T04:28:22.449Z,100
2022-10-19T04:29:25.112Z,100
2022-10-19T04:30:21.947Z,100
2022-10-19T04:31:21.126Z,100
2022-10-19T04:32:21.424Z,100
2022-10-19T04:33:21.271Z,100
2022-10-19T04:34:21.137Z,100
2022-10-19T04:35:21.316Z,100
2022-10-19T04:36:21.147Z,100
2022-10-19T04:37:21.145Z,100
2022-10-19T04:38:21.159Z,100
2022-10-19T04:39:21.167Z,100
2022-10-19T04:40:21.375Z,100
2022-10-19T04:41:21.173Z,100
2022-10-19T04:42:21.547Z,100
2022-10-19T04:43:21.556Z,100
2022-10-19T04:44:20.844Z,100
2022-10-19T04:45:21.121Z,100
2022-10-19T04:46:21.353Z,100
2022-10-19T04:47:21.711Z,100
2022-10-19T04:48:21.160Z,100
2022-10-19T04:49:22.317Z,100
2022-10-19T04:50:21.897Z,100
2022-10-19T04:51:21.183Z,100
2022-10-19T04:52:21.130Z,100
2022-10-19T04:53:21.274Z,100
2022-10-19T04:54:21.139Z,100
2022-10-19T04:55:21.145Z,100
2022-10-19T04:56:21.174Z,100
2022-10-19T04:57:21.132Z,100
2022-10-19T04:58:21.152Z,100
2022-10-19T04:59:21.166Z,100
2022-10-19T05:00:21.183Z,100
2022-10-19T05:01:21.271Z,100
2022-10-19T05:02:21.141Z,100
2022-10-19T05:03:21.272Z,100
2022-10-19T05:04:21.161Z,100
2022-10-19T05:05:21.147Z,100
2022-10-19T05:06:21.163Z,100
2022-10-19T05:07:21.162Z,100
2022-10-19T05:08:21.138Z,100
2022-10-19T05:09:21.146Z,100
2022-10-19T05:10:21.150Z,100
2022-10-19T05:11:21.185Z,100
2022-10-19T05:12:21.150Z,100
2022-10-19T05:13:21.162Z,100
2022-10-19T05:14:21.417Z,100
2022-10-19T05:15:21.131Z,100
2022-10-19T05:16:21.178Z,100
2022-10-19T05:17:21.145Z,100
2022-10-19T05:18:21.149Z,100
2022-10-19T05:19:21.143Z,100
2022-10-19T05:20:21.154Z,100
2022-10-19T05:21:21.165Z,100
2022-10-19T05:22:21.141Z,100
2022-10-19T05:23:21.497Z,100
2022-10-19T05:24:21.156Z,100
2022-10-19T05:25:21.261Z,100
2022-10-19T05:26:21.270Z,100
2022-10-19T05:27:21.146Z,100
2022-10-19T05:28:21.393Z,100
2022-10-19T05:29:21.395Z,100
2022-10-19T05:30:21.435Z,100
2022-10-19T05:31:21.309Z,100
2022-10-19T05:32:21.585Z,100
2022-10-19T05:33:21.140Z,100
2022-10-19T05:34:21.156Z,100
2022-10-19T05:35:24.373Z,100
2022-10-19T05:36:21.162Z,100
2022-10-19T05:37:21.140Z,100
2022-10-19T05:38:21.165Z,100
2022-10-19T05:39:21.144Z,100
2022-10-19T05:40:21.151Z,100
2022-10-19T05:41:21.138Z,100
2022-10-19T05:42:21.246Z,100
2022-10-19T05:43:21.169Z,100
2022-10-19T05:44:21.156Z,100
2022-10-19T05:45:21.148Z,100
2022-10-19T05:46:21.406Z,100
2022-10-19T05:47:21.155Z,100
2022-10-19T05:48:21.181Z,100
2022-10-19T05:49:21.442Z,100
2022-10-19T05:50:21.136Z,100
2022-10-19T05:51:21.141Z,100
2022-10-19T05:52:21.144Z,100
2022-10-19T05:53:21.139Z,100
2022-10-19T05:54:25.095Z,100
2022-10-19T05:55:21.138Z,100
2022-10-19T05:56:21.133Z,100
2022-10-19T05:57:21.158Z,100
2022-10-19T05:58:21.128Z,100
2022-10-19T05:59:21.159Z,100
2022-10-19T06:00:21.140Z,100
2022-10-19T06:01:21.143Z,100
2022-10-19T06:02:21.139Z,100
2022-10-19T06:03:21.149Z,100
2022-10-19T06:04:21.135Z,100
2022-10-19T06:05:21.143Z,100
2022-10-19T06:06:21.154Z,100
2022-10-19T06:07:21.154Z,100
2022-10-19T06:08:21.179Z,100
2022-10-19T06:09:21.144Z,100
2022-10-19T06:10:21.290Z,100
2022-10-19T06:11:21.130Z,100
2022-10-19T06:12:27.258Z,100
2022-10-19T06:13:21.170Z,100
2022-10-19T06:14:21.138Z,100
2022-10-19T06:15:21.155Z,100
2022-10-19T06:16:21.150Z,100
2022-10-19T06:17:21.140Z,100
2022-10-19T06:18:21.188Z,100
2022-10-19T06:19:21.192Z,100
2022-10-19T06:20:21.242Z,100
2022-10-19T06:21:21.163Z,100
2022-10-19T06:22:21.274Z,100
2022-10-19T06:23:21.140Z,100
2022-10-19T06:24:21.151Z,100
2022-10-19T06:25:22.149Z,100
2022-10-19T06:26:21.136Z,100
2022-10-19T06:27:21.169Z,100
2022-10-19T06:28:21.142Z,100
2022-10-19T06:29:21.152Z,100
2022-10-19T06:30:21.168Z,100
2022-10-19T06:31:21.144Z,100
2022-10-19T06:32:21.250Z,100
2022-10-19T06:33:21.237Z,100
2022-10-19T06:34:21.260Z,100
2022-10-19T06:35:21.139Z,100
2022-10-19T06:36:21.136Z,100
2022-10-19T06:37:21.143Z,100
2022-10-19T06:38:21.138Z,100
2022-10-19T06:39:21.148Z,100
2022-10-19T06:40:21.137Z,100
2022-10-19T06:41:21.147Z,100
2022-10-19T06:42:21.157Z,100
2022-10-19T06:43:21.171Z,100
2022-10-19T06:44:21.145Z,100
2022-10-19T06:45:21.164Z,100
2022-10-19T06:46:21.273Z,100
2022-10-19T06:47:21.140Z,100
2022-10-19T06:48:21.162Z,100
2022-10-19T06:49:21.148Z,100
2022-10-19T06:50:21.471Z,100
2022-10-19T06:51:21.462Z,100
2022-10-19T06:52:21.435Z,100
2022-10-19T06:53:21.365Z,100
2022-10-19T06:54:21.673Z,100
2022-10-19T06:55:21.673Z,100
2022-10-19T06:56:21.300Z,100
2022-10-19T06:57:21.722Z,100
2022-10-19T06:58:22.164Z,100
2022-10-19T06:59:21.566Z,100
2022-10-19T07:00:21.166Z,100
2022-10-19T07:01:21.601Z,100
2022-10-19T07:02:21.736Z,100
2022-10-19T07:03:21.167Z,100
2022-10-19T07:04:21.335Z,100
2022-10-19T07:05:21.600Z,100
2022-10-19T07:06:21.295Z,100
2022-10-19T07:07:21.393Z,100
2022-10-19T07:08:21.207Z,100
2022-10-19T07:09:21.435Z,100
2022-10-19T07:10:21.822Z,100
2022-10-19T07:11:21.135Z,100
2022-10-19T07:12:21.161Z,100
2022-10-19T07:13:21.160Z,100
2022-10-19T07:14:21.131Z,100
2022-10-19T07:15:21.165Z,100
2022-10-19T07:16:24.444Z,100
2022-10-19T07:17:21.154Z,100
2022-10-19T07:18:21.152Z,100
2022-10-19T07:19:21.148Z,100
2022-10-19T07:20:21.161Z,100
2022-10-19T07:21:21.151Z,100
2022-10-19T07:22:28.315Z,100
2022-10-19T07:23:21.170Z,100
2022-10-19T07:24:21.154Z,100
2022-10-19T07:25:21.142Z,100
2022-10-19T07:26:21.138Z,100
2022-10-19T07:27:21.145Z,100
2022-10-19T07:28:21.155Z,100
2022-10-19T07:29:21.163Z,100
2022-10-19T07:30:21.303Z,100
2022-10-19T07:31:21.184Z,100
2022-10-19T07:32:21.161Z,100
2022-10-19T07:33:21.149Z,100
2022-10-19T07:34:25.454Z,100
2022-10-19T07:35:21.137Z,100
2022-10-19T07:36:21.137Z,100
2022-10-19T07:37:21.138Z,100
2022-10-19T07:38:21.137Z,100
2022-10-19T07:39:21.178Z,100
2022-10-19T07:40:21.182Z,100
2022-10-19T07:41:21.193Z,100
2022-10-19T07:43:21.164Z,100
2022-10-19T07:44:21.143Z,100
2022-10-19T07:45:21.180Z,100
2022-10-19T07:46:21.134Z,100
2022-10-19T07:47:21.141Z,100
2022-10-19T07:48:21.148Z,100
2022-10-19T07:49:21.150Z,100
2022-10-19T07:50:21.146Z,100
2022-10-19T07:51:21.212Z,100
2022-10-19T07:52:21.130Z,100
2022-10-19T07:53:21.146Z,100
2022-10-19T07:54:21.168Z,100
2022-10-19T07:55:21.148Z,100
2022-10-19T07:56:21.423Z,100
2022-10-19T07:57:21.655Z,100
2022-10-19T07:58:21.646Z,100
2022-10-19T07:59:20.965Z,100
2022-10-19T08:00:21.232Z,100
2022-10-19T08:01:21.513Z,100
2022-10-19T08:02:21.155Z,100
2022-10-19T08:04:31.587Z,100
2022-10-19T08:04:55.835Z,100
2022-10-19T08:05:21.214Z,100
2022-10-19T08:06:21.311Z,100
2022-10-19T08:07:21.144Z,100
2022-10-19T08:08:21.140Z,100
2022-10-19T08:09:51.291Z,100
2022-10-19T08:10:21.133Z,100
2022-10-19T08:11:21.159Z,100
2022-10-19T08:12:21.142Z,100
2022-10-19T08:13:21.147Z,100
2022-10-19T08:14:21.170Z,100
2022-10-19T08:15:21.222Z,100
2022-10-19T08:16:21.150Z,100
2022-10-19T08:17:21.139Z,100
2022-10-19T08:18:21.341Z,100
2022-10-19T08:19:21.140Z,100
2022-10-19T08:20:21.234Z,100
2022-10-19T08:21:21.142Z,100
2022-10-19T08:22:21.140Z,100
2022-10-19T08:23:21.146Z,100
2022-10-19T08:24:21.183Z,100
2022-10-19T08:25:21.152Z,100
2022-10-19T08:26:21.150Z,100
2022-10-19T08:27:21.165Z,100
2022-10-19T08:28:21.163Z,100
2022-10-19T08:29:21.261Z,100
2022-10-19T08:30:21.165Z,100
2022-10-19T08:31:21.148Z,100
2022-10-19T08:32:21.137Z,100
2022-10-19T08:33:21.142Z,100
2022-10-19T08:34:21.175Z,100
2022-10-19T08:35:21.138Z,100
2022-10-19T08:36:21.197Z,100
2022-10-19T08:37:40.556Z,100
2022-10-19T08:38:21.361Z,100
2022-10-19T08:39:21.208Z,100
2022-10-19T08:40:21.255Z,100
2022-10-19T08:41:21.583Z,100
2022-10-19T08:42:21.150Z,100
2022-10-19T08:43:21.381Z,100
2022-10-19T08:44:21.573Z,100
2022-10-19T08:45:21.395Z,100
2022-10-19T08:46:21.171Z,100
2022-10-19T08:47:24.343Z,100
2022-10-19T08:48:21.438Z,100
2022-10-19T08:49:21.147Z,100
2022-10-19T08:50:21.285Z,100
2022-10-19T08:51:21.261Z,100
2022-10-19T08:52:21.162Z,100
2022-10-19T08:53:21.177Z,100
2022-10-19T08:54:21.150Z,100
2022-10-19T08:55:22.147Z,100
2022-10-19T08:56:46.188Z,100
2022-10-19T08:57:21.143Z,100
2022-10-19T08:58:21.233Z,100
2022-10-19T08:59:21.140Z,100
2022-10-19T09:00:21.184Z,100
2022-10-19T09:01:21.140Z,100
2022-10-19T09:02:21.609Z,100
2022-10-19T09:03:37.466Z,100
2022-10-19T09:04:21.160Z,100
2022-10-19T09:05:21.374Z,100
2022-10-19T09:06:21.207Z,100
2022-10-19T09:07:21.141Z,100
2022-10-19T09:08:21.139Z,100
2022-10-19T09:09:21.161Z,100
2022-10-19T09:10:21.154Z,100
2022-10-19T09:11:21.135Z,100
2022-10-19T09:12:21.144Z,98.69
2022-10-19T09:13:21.146Z,95.21
2022-10-19T09:14:21.154Z,96.02
2022-10-19T09:15:21.144Z,96.96
2022-10-19T09:16:21.144Z,92.44
2022-10-19T09:17:21.151Z,90.36
2022-10-19T09:18:21.142Z,89.36
2022-10-19T09:19:21.153Z,90.83
2022-10-19T09:20:21.138Z,90.1
2022-10-19T09:21:24.141Z,91.18
2022-10-19T09:22:21.156Z,88.72
2022-10-19T09:23:21.150Z,89
2022-10-19T09:24:21.146Z,89.1
2022-10-19T09:25:21.252Z,88.76
2022-10-19T09:26:21.166Z,89.04
2022-10-19T09:27:21.136Z,89.34
2022-10-19T09:28:21.158Z,89.85
2022-10-19T09:29:21.138Z,88.83
2022-10-19T09:30:21.141Z,87.4
2022-10-19T09:31:21.153Z,85.19
2022-10-19T09:32:21.132Z,85.63
2022-10-19T09:33:21.151Z,85.82
2022-10-19T09:34:21.148Z,86.47
2022-10-19T09:35:21.143Z,86.48
2022-10-19T09:36:33.187Z,85.41
2022-10-19T09:37:27.417Z,84.57
2022-10-19T09:38:21.288Z,83.41
2022-10-19T09:39:21.883Z,82.74
2022-10-19T09:40:21.138Z,82.8
2022-10-19T09:41:21.136Z,82.38
2022-10-19T09:42:21.142Z,83.31
2022-10-19T09:43:21.145Z,82.61
2022-10-19T09:44:21.147Z,83.26
2022-10-19T09:45:21.153Z,83.02
2022-10-19T09:46:22.168Z,84.28
2022-10-19T09:47:21.144Z,82.57
2022-10-19T09:48:21.164Z,82.8
2022-10-19T09:49:21.153Z,82.91
2022-10-19T09:50:21.144Z,83.14
2022-10-19T09:51:21.142Z,84.14
2022-10-19T09:52:21.141Z,84.54
2022-10-19T09:53:21.125Z,84.28
2022-10-19T09:54:21.423Z,84.86
2022-10-19T09:55:21.142Z,84.62
2022-10-19T09:56:21.374Z,84.49
2022-10-19T09:57:21.272Z,85.46
2022-10-19T09:58:21.592Z,86.27
2022-10-19T09:59:22.071Z,85.95
2022-10-19T10:00:22.436Z,85.71
2022-10-19T10:01:21.939Z,85.06
2022-10-19T10:02:22.202Z,85.15
2022-10-19T10:03:21.127Z,84.76
2022-10-19T10:04:21.405Z,84.86
2022-10-19T10:05:21.141Z,85.54
2022-10-19T10:06:21.427Z,84.62
2022-10-19T10:07:21.152Z,83.8
2022-10-19T10:08:21.140Z,81.95
2022-10-19T10:09:21.241Z,80.98
2022-10-19T10:10:21.154Z,81.86
2022-10-19T10:11:21.196Z,81.03
2022-10-19T10:12:21.246Z,81.11
2022-10-19T10:13:21.365Z,80.23
2022-10-19T10:14:21.143Z,80.18
2022-10-19T10:15:21.365Z,78.35
2022-10-19T10:16:21.306Z,78.9
2022-10-19T10:17:21.565Z,77.31
2022-10-19T10:18:21.272Z,76.55
2022-10-19T10:19:25.322Z,75.57
2022-10-19T10:20:21.351Z,75.13
2022-10-19T10:21:27.927Z,74.87
2022-10-19T10:22:21.284Z,75.62
2022-10-19T10:23:21.467Z,75.11
2022-10-19T10:24:21.955Z,74.99
2022-10-19T10:25:21.131Z,75.51
2022-10-19T10:26:21.172Z,76.29
2022-10-19T10:27:21.137Z,76.33
2022-10-19T10:28:21.130Z,75.35
2022-10-19T10:29:21.142Z,74.5
2022-10-19T10:30:21.143Z,75.98
2022-10-19T10:31:21.173Z,75.27
2022-10-19T10:32:21.150Z,74.24
2022-10-19T10:33:33.498Z,74.91
2022-10-19T10:34:37.446Z,74.48
2022-10-19T10:35:21.259Z,73.75
2022-10-19T10:36:21.179Z,74.69
2022-10-19T10:37:21.142Z,75.48
2022-10-19T10:38:21.144Z,75.37
2022-10-19T10:39:21.147Z,74.23
2022-10-19T10:40:24.505Z,74.36
2022-10-19T10:41:21.184Z,73.81
2022-10-19T10:42:21.136Z,74.02
2022-10-19T10:43:21.143Z,72.21
2022-10-19T10:44:21.143Z,72.16
2022-10-19T10:45:21.259Z,71.55
2022-10-19T10:46:21.169Z,71.02
2022-10-19T10:47:21.141Z,70.27
2022-10-19T10:48:21.136Z,70.87
2022-10-19T10:49:21.142Z,69.85
2022-10-19T10:50:21.133Z,68.83
2022-10-19T10:51:21.157Z,68.89
2022-10-19T10:52:21.150Z,69.85
2022-10-19T10:53:21.139Z,69.76
2022-10-19T10:54:21.149Z,69.52
2022-10-19T10:55:21.219Z,69.79
2022-10-19T10:56:21.194Z,68.58
2022-10-19T10:57:21.152Z,69.68
2022-10-19T10:58:21.227Z,70.6
2022-10-19T10:59:21.134Z,71.24
2022-10-19T11:00:21.146Z,70.21
2022-10-19T11:01:21.219Z,71.16
2022-10-19T11:02:21.162Z,71.82
2022-10-19T11:03:21.139Z,71.21
2022-10-19T11:04:21.138Z,71.62
2022-10-19T11:05:21.149Z,70.03
2022-10-19T11:06:21.349Z,70.97
2022-10-19T11:07:21.152Z,70.17
2022-10-19T11:08:21.184Z,70.79
2022-10-19T11:09:21.148Z,71.26
2022-10-19T11:10:21.139Z,71.47
2022-10-19T11:11:21.143Z,72.28
2022-10-19T11:12:21.138Z,72.41
2022-10-19T11:13:21.135Z,72.11
2022-10-19T11:14:21.137Z,72.27
2022-10-19T11:15:21.178Z,72.43
2022-10-19T11:16:21.143Z,70.74
2022-10-19T11:17:21.154Z,69.53
2022-10-19T11:18:21.241Z,69.51
2022-10-19T11:19:21.236Z,68.49
2022-10-19T11:20:21.271Z,69.43
2022-10-19T11:21:21.138Z,70.39
2022-10-19T11:22:27.422Z,71.72
2022-10-19T11:23:21.141Z,72.36
2022-10-19T11:24:21.205Z,71.11
2022-10-19T11:25:21.142Z,70.94
2022-10-19T11:26:21.136Z,70.85
2022-10-19T11:27:21.134Z,71.04
2022-10-19T11:28:21.158Z,72.32
2022-10-19T11:29:21.154Z,72.03
2022-10-19T11:30:21.260Z,72.66
2022-10-19T11:31:21.153Z,71.12
2022-10-19T11:32:21.241Z,70.83
2022-10-19T11:33:21.143Z,70.32
2022-10-19T11:34:27.442Z,70.47
2022-10-19T11:35:21.139Z,70.19
2022-10-19T11:36:21.137Z,69.47
2022-10-19T11:37:21.137Z,70.69
2022-10-19T11:38:29.729Z,70.14
2022-10-19T11:39:21.137Z,69.59
2022-10-19T11:40:24.424Z,69.61
2022-10-19T11:41:21.251Z,69.9
2022-10-19T11:42:21.136Z,71.73
2022-10-19T11:43:27.415Z,71.49
2022-10-19T11:44:21.158Z,72.54
2022-10-19T11:45:21.139Z,73.07
2022-10-19T11:46:21.154Z,73.47
2022-10-19T11:47:21.138Z,72.3
2022-10-19T11:48:21.400Z,71.03
2022-10-19T11:49:21.707Z,70.38
2022-10-19T11:50:21.606Z,70.07
2022-10-19T11:51:22.927Z,100
2022-10-19T11:52:21.261Z,70.49
2022-10-19T11:53:21.459Z,71.38
2022-10-19T11:54:21.937Z,71.65
2022-10-19T11:55:21.669Z,71.68
2022-10-19T11:56:23.409Z,72.5
2022-10-19T11:57:21.890Z,72.46
2022-10-19T11:58:21.317Z,73.36
2022-10-19T11:59:21.616Z,73.44
2022-10-19T12:00:38.517Z,72.59
2022-10-19T12:01:21.530Z,71.43
2022-10-19T12:02:21.337Z,69.8
2022-10-19T12:03:21.159Z,68.99
2022-10-19T12:04:21.282Z,69.19
2022-10-19T12:05:21.204Z,69.57
2022-10-19T12:06:21.438Z,69.42
2022-10-19T12:07:21.697Z,68.15
2022-10-19T12:08:21.454Z,68.18
2022-10-19T12:09:21.173Z,68.68
2022-10-19T12:10:21.141Z,69.75
2022-10-19T12:11:21.138Z,70.23
2022-10-19T12:12:21.150Z,69.44
2022-10-19T12:13:21.160Z,69.39
2022-10-19T12:14:21.154Z,68.52
2022-10-19T12:15:21.144Z,67.17
2022-10-19T12:16:21.143Z,67.03
2022-10-19T12:17:21.248Z,66.37
2022-10-19T12:18:21.211Z,68.05
2022-10-19T12:19:21.147Z,67.86
2022-10-19T12:20:22.142Z,67.98
2022-10-19T12:21:21.141Z,67.33
2022-10-19T12:22:21.138Z,65.79
2022-10-19T12:23:21.177Z,64.75
2022-10-19T12:24:21.142Z,63.76
2022-10-19T12:25:21.164Z,64.32
2022-10-19T12:26:21.184Z,63.51
2022-10-19T12:27:21.155Z,63.44
2022-10-19T12:28:21.170Z,63.8
2022-10-19T12:29:21.169Z,64.71
2022-10-19T12:30:21.145Z,65.42
2022-10-19T12:31:21.149Z,65.73
2022-10-19T12:32:21.140Z,66.8
2022-10-19T12:33:21.175Z,67.83
2022-10-19T12:34:21.136Z,68.48
2022-10-19T12:35:22.148Z,67.01
2022-10-19T12:36:21.141Z,66.23
2022-10-19T12:37:21.144Z,65.63
2022-10-19T12:38:21.189Z,65.61
2022-10-19T12:39:21.170Z,65.34
2022-10-19T12:40:21.141Z,66.34
2022-10-19T12:41:21.219Z,67.83
2022-10-19T12:42:21.169Z,69.86
2022-10-19T12:43:21.149Z,71.12
2022-10-19T12:44:21.158Z,69.86
2022-10-19T12:45:21.139Z,69.42
2022-10-19T12:46:21.136Z,70.26
2022-10-19T12:47:21.151Z,70.36
2022-10-19T12:48:21.175Z,69.86
2022-10-19T12:49:21.154Z,69.99
2022-10-19T12:50:22.196Z,70.16
2022-10-19T12:51:21.143Z,69.83
2022-10-19T12:52:21.174Z,69.83
2022-10-19T12:53:21.411Z,70.41
2022-10-19T12:54:21.146Z,69.93
2022-10-19T12:55:21.150Z,69.25
2022-10-19T12:56:21.141Z,69.38
2022-10-19T12:57:24.135Z,68.1
2022-10-19T12:58:21.155Z,68.19
2022-10-19T12:59:21.145Z,68.62
2022-10-19T13:00:21.131Z,67.98
2022-10-19T13:01:21.150Z,67.28
2022-10-19T13:02:21.223Z,68.17
2022-10-19T13:03:23.912Z,68.86
2022-10-19T13:04:21.226Z,69.9
2022-10-19T13:05:21.247Z,70.36
2022-10-19T13:06:21.396Z,70.42
2022-10-19T13:07:21.560Z,70.62
2022-10-19T13:08:21.168Z,70.69
2022-10-19T13:09:21.356Z,70.43
2022-10-19T13:10:21.466Z,71.02
2022-10-19T13:11:21.134Z,71.65
2022-10-19T13:12:27.770Z,72.16
2022-10-19T13:13:21.570Z,73.25
2022-10-19T13:14:21.146Z,72.96
2022-10-19T13:15:21.206Z,71.57
2022-10-19T13:16:21.167Z,70.79
2022-10-19T13:17:21.140Z,69.21
2022-10-19T13:18:21.168Z,68.8
2022-10-19T13:19:21.143Z,68.85
2022-10-19T13:20:21.139Z,69.27
2022-10-19T13:21:21.140Z,69.46
2022-10-19T13:22:21.145Z,68.86
2022-10-19T13:23:21.171Z,66.88
2022-10-19T13:24:21.159Z,66.04
2022-10-19T13:25:21.615Z,66.38
2022-10-19T13:26:21.148Z,66.86
2022-10-19T13:27:21.352Z,67.33
2022-10-19T13:28:21.188Z,68.11
2022-10-19T13:29:21.496Z,68.17
2022-10-19T13:30:21.190Z,67.6